Albertville, Wisconsin
Current Conditions -  °F | °C
As of 3:55 AM on Sunday 23 Nov 2014 (Local Time) from KLUM Reporting Station
Haze Haze  
Wind Chill: 40°   Ceiling: 900
Heat Index: 46°   Visibility: 1.2mi
Dew Point: 45°   Wind: 10mph
Humidity: 99%   Direction: 170°S
Pressure: 29.48"   Gusts: NA
Location:  45.0099°N, 91.7075°W
Report Text: KLUM 230955Z AUTO 17009KT 1 1/4SM BR OVC009 08/07 A2948 RMK AO2 T00750074
Loading
Personal Weather Stations






























Interactive Weather Map New forecast layout! Learn more

10-Day Weather Forecast

Advertisements
Track Severe Weather on mobile